Авиационная погода в аэропорту Имени Германа Титова

Регион: 
Погода METAR: 
UNBB 221800Z 00000MPS 8000 NSC M18/M20 Q1031 R24/910350 NOSIG RMK QFE751
Время наблюдения
2022-01-22T18:00:00Z
Температура C
-18.0
Точка росы
-20.0
Направление ветра
0
Скорость ветра (узлы)
0
Метео видимость
4.97
Облачность
CLR
Нижняя граница облачности (футы)
Явления погоды
Условия полета
MVFR
Аэропорт подробнее: 
CLR — нет облаков ниже 3000 м